Time;durP1;ratioP1;P1;durP2;ratioP2;P2;SDS_P1;SDS_P2;PMS_P1;PMS_P2;Temp;Humidity;BMP_temperature;BMP_pressure;BME280_temperature;BME280_humidity;BME280_pressure;Samples;Min_cycle;Max_cycle;Signal;HPM_P1;HPM_P2
2022/09/08 00:00:56;;;;;;;13.90;5.47;;;22.40;56.40;;;;;;4958120;28;20038;-75
2022/09/08 00:03:25;;;;;;;14.18;4.65;;;22.40;56.10;;;;;;4991344;28;20356;-76
2022/09/08 00:05:59;;;;;;;11.75;5.25;;;22.40;56.30;;;;;;4977637;28;20030;-75
2022/09/08 00:08:25;;;;;;;9.48;4.85;;;22.40;56.30;;;;;;4987649;28;20471;-75
2022/09/08 00:10:57;;;;;;;11.30;5.00;;;22.40;55.90;;;;;;4973883;28;20069;-75
2022/09/08 00:13:25;;;;;;;10.80;3.95;;;22.40;55.20;;;;;;4973968;28;20026;-75
2022/09/08 00:15:52;;;;;;;9.23;3.78;;;22.40;55.50;;;;;;4991081;28;20117;-75
2022/09/08 00:18:18;;;;;;;12.90;4.78;;;22.40;55.10;;;;;;5001565;28;20562;-76
2022/09/08 00:20:44;;;;;;;17.05;8.80;;;22.40;54.80;;;;;;5008123;28;20524;-76
2022/09/08 00:23:10;;;;;;;27.40;14.88;;;22.30;54.30;;;;;;4998462;28;20057;-81
2022/09/08 00:25:36;;;;;;;23.23;10.60;;;22.30;54.30;;;;;;4950530;28;20093;-80
2022/09/08 00:28:02;;;;;;;21.25;11.50;;;22.40;54.10;;;;;;4995779;28;20441;-81
2022/09/08 00:30:31;;;;;;;20.83;10.52;;;22.40;54.30;;;;;;4961464;28;21203;-80
2022/09/08 00:32:57;;;;;;;24.40;11.65;;;22.40;54.40;;;;;;4978135;28;20458;-80
2022/09/08 00:35:23;;;;;;;21.42;10.25;;;22.50;54.50;;;;;;4974164;28;20050;-80
2022/09/08 00:37:52;;;;;;;28.63;10.00;;;22.50;54.40;;;;;;4967300;28;20093;-80
2022/09/08 00:40:19;;;;;;;19.58;9.75;;;22.50;54.50;;;;;;4949557;28;20062;-80
2022/09/08 00:42:45;;;;;;;21.23;9.05;;;22.50;54.60;;;;;;4983279;28;20026;-81
2022/09/08 00:45:12;;;;;;;17.75;9.18;;;22.50;55.20;;;;;;4966297;28;20388;-81
2022/09/08 00:47:43;;;;;;;16.38;8.88;;;22.50;55.90;;;;;;4967880;28;20023;-80
2022/09/08 00:50:21;;;;;;;18.90;8.57;;;22.50;55.30;;;;;;4968288;28;20430;-82
2022/09/08 00:52:53;;;;;;;16.30;8.57;;;22.50;55.30;;;;;;4954370;28;20023;-82
2022/09/08 00:55:23;;;;;;;17.70;9.43;;;22.50;55.50;;;;;;4986907;28;20022;-83
2022/09/08 01:00:31;;;;;;;17.35;8.82;;;22.50;55.60;;;;;;4896224;29;20045;-81
2022/09/08 01:02:57;;;;;;;17.45;9.13;;;22.50;55.80;;;;;;4898633;29;20101;-81
2022/09/08 01:05:35;;;;;;;18.73;8.30;;;22.50;55.80;;;;;;4899725;29;20051;-80
2022/09/08 01:14:04;;;;;;;15.65;8.80;;;22.50;56.00;;;;;;4907017;29;20035;-81
2022/09/08 01:16:41;;;;;;;13.40;8.55;;;22.50;56.10;;;;;;4907639;29;20032;-80
2022/09/08 01:19:40;;;;;;;16.33;8.98;;;22.50;56.20;;;;;;4916412;29;20036;-82
2022/09/08 01:22:35;;;;;;;17.88;9.43;;;22.50;56.40;;;;;;4906896;29;20103;-81
2022/09/08 01:25:32;;;;;;;15.30;8.13;;;22.50;56.40;;;;;;4930300;29;20039;-81
2022/09/08 01:28:27;;;;;;;15.13;8.52;;;22.50;56.40;;;;;;4917859;29;20160;-81
2022/09/08 01:30:54;;;;;;;15.50;8.18;;;22.50;56.50;;;;;;4906803;29;20501;-80
2022/09/08 01:33:20;;;;;;;14.90;7.95;;;22.50;56.60;;;;;;4917265;29;20163;-80
2022/09/08 01:35:46;;;;;;;17.30;8.70;;;22.50;56.60;;;;;;4901283;29;20025;-81
2022/09/08 01:38:12;;;;;;;15.27;8.23;;;22.50;56.70;;;;;;4916866;29;20103;-80
2022/09/08 01:40:38;;;;;;;14.38;8.00;;;22.50;56.80;;;;;;4916455;29;20168;-81
2022/09/08 01:43:07;;;;;;;16.15;8.07;;;22.50;56.80;;;;;;4917993;29;20043;-81
2022/09/08 01:45:33;;;;;;;14.93;7.95;;;22.50;56.90;;;;;;4917797;29;20119;-80
2022/09/08 01:47:59;;;;;;;15.35;7.15;;;22.50;56.90;;;;;;4917776;29;20028;-81
2022/09/08 01:50:25;;;;;;;14.60;7.95;;;22.50;56.90;;;;;;4917626;29;20024;-80
2022/09/08 01:52:51;;;;;;;12.85;7.30;;;22.50;56.90;;;;;;4917655;29;20115;-81
2022/09/08 01:55:17;;;;;;;19.33;8.10;;;22.50;57.00;;;;;;4916678;29;20040;-80
2022/09/08 01:57:43;;;;;;;13.77;7.90;;;22.50;57.00;;;;;;4917602;29;20104;-80
2022/09/08 02:00:10;;;;;;;16.88;8.13;;;22.50;57.20;;;;;;4916090;29;20140;-79
2022/09/08 02:02:36;;;;;;;13.60;7.93;;;22.50;57.20;;;;;;4916233;29;20032;-78
2022/09/08 02:05:02;;;;;;;14.23;7.97;;;22.50;57.20;;;;;;4915330;29;20034;-80
2022/09/08 02:07:30;;;;;;;13.23;7.38;;;22.50;57.20;;;;;;4916163;29;20035;-80
2022/09/08 02:09:56;;;;;;;13.65;7.50;;;22.50;57.20;;;;;;4916076;29;20111;-80
2022/09/08 02:12:21;;;;;;;13.32;7.82;;;22.50;57.20;;;;;;4911249;29;20115;-79
2022/09/08 02:14:47;;;;;;;14.88;7.90;;;22.50;57.20;;;;;;4912737;29;20028;-78
2022/09/08 02:17:13;;;;;;;14.48;7.70;;;22.50;57.20;;;;;;4917855;29;20028;-78
2022/09/08 02:19:42;;;;;;;15.05;7.40;;;22.50;57.20;;;;;;4917429;29;20519;-79
2022/09/08 02:22:07;;;;;;;15.98;6.72;;;22.60;57.30;;;;;;4917721;29;20405;-79
2022/09/08 02:24:33;;;;;;;14.00;7.05;;;22.50;57.30;;;;;;4916458;29;20032;-79
2022/09/08 02:26:59;;;;;;;12.07;7.07;;;22.50;57.30;;;;;;4917592;29;20035;-79
2022/09/08 02:29:27;;;;;;;12.02;6.93;;;22.60;57.50;;;;;;4917155;29;20043;-80
2022/09/08 02:31:53;;;;;;;12.95;6.60;;;22.50;57.40;;;;;;4917238;29;20389;-80
2022/09/08 02:34:19;;;;;;;12.23;6.50;;;22.60;57.40;;;;;;4917283;29;20544;-80
2022/09/08 02:36:44;;;;;;;14.80;6.78;;;22.60;57.50;;;;;;4916404;29;20036;-80
2022/09/08 02:39:16;;;;;;;13.48;6.95;;;22.60;58.00;;;;;;4917043;29;20024;-80
2022/09/08 02:41:42;;;;;;;14.98;6.50;;;22.50;57.50;;;;;;4917311;29;20087;-80
2022/09/08 02:44:09;;;;;;;12.13;6.47;;;22.50;57.50;;;;;;4917050;29;20044;-80
2022/09/08 02:46:35;;;;;;;12.75;6.60;;;22.50;57.50;;;;;;4917455;29;20413;-80
2022/09/08 02:49:00;;;;;;;16.20;6.68;;;22.50;57.50;;;;;;4916924;29;20035;-80
2022/09/08 02:51:27;;;;;;;16.20;6.43;;;22.50;57.60;;;;;;4916086;29;20031;-80
2022/09/08 02:53:55;;;;;;;13.20;7.07;;;22.50;57.40;;;;;;4915861;29;20068;-80
2022/09/08 02:56:21;;;;;;;11.45;6.53;;;22.50;57.50;;;;;;4916996;29;20059;-80
2022/09/08 02:58:46;;;;;;;12.13;6.30;;;22.50;57.50;;;;;;4899918;29;20094;-79
2022/09/08 03:01:12;;;;;;;12.40;5.88;;;22.50;57.40;;;;;;4916036;29;20028;-79
2022/09/08 03:03:38;;;;;;;11.43;6.32;;;22.50;57.50;;;;;;4899997;29;20035;-79
2022/09/08 03:06:04;;;;;;;10.52;6.00;;;22.50;57.60;;;;;;4916939;29;20119;-79
2022/09/08 03:08:30;;;;;;;10.57;5.75;;;22.50;57.50;;;;;;4916275;29;20031;-79
2022/09/08 03:10:56;;;;;;;11.60;6.30;;;22.50;57.60;;;;;;4916517;29;20477;-79
2022/09/08 03:13:24;;;;;;;12.65;6.28;;;22.50;57.70;;;;;;4916868;29;20020;-79
2022/09/08 03:15:50;;;;;;;12.60;5.60;;;22.50;57.60;;;;;;4916758;29;20032;-78
2022/09/08 03:18:16;;;;;;;11.30;5.72;;;22.40;57.50;;;;;;4916814;29;20154;-79
2022/09/08 03:20:44;;;;;;;11.13;5.78;;;22.50;57.60;;;;;;4915121;29;20032;-79
2022/09/08 03:23:19;;;;;;;8.93;5.65;;;22.40;57.40;;;;;;4916499;29;20107;-80
2022/09/08 03:25:47;;;;;;;11.63;5.78;;;22.40;57.50;;;;;;4899685;29;20036;-78
2022/09/08 03:28:18;;;;;;;9.02;5.15;;;22.40;57.40;;;;;;4916163;29;20020;-78
2022/09/08 03:30:44;;;;;;;10.20;5.90;;;22.40;57.40;;;;;;4916809;29;20496;-78
2022/09/08 03:33:10;;;;;;;13.75;6.15;;;22.40;57.40;;;;;;4915101;29;20056;-78
2022/09/08 03:35:36;;;;;;;11.48;5.63;;;22.50;57.40;;;;;;4916419;29;20490;-78
2022/09/08 03:38:02;;;;;;;9.30;5.47;;;22.40;57.30;;;;;;4916246;29;20067;-78
2022/09/08 03:40:28;;;;;;;10.75;5.75;;;22.40;57.30;;;;;;4915109;29;20039;-79
2022/09/08 03:42:54;;;;;;;11.93;5.70;;;22.50;57.40;;;;;;4904930;29;20478;-78
2022/09/08 03:45:20;;;;;;;11.32;5.38;;;22.40;57.50;;;;;;4897288;29;20084;-77
2022/09/08 03:47:47;;;;;;;10.27;5.45;;;22.50;57.50;;;;;;4900692;29;20063;-79
2022/09/08 03:50:14;;;;;;;10.68;5.55;;;22.40;57.50;;;;;;4915626;29;20024;-78
2022/09/08 03:52:40;;;;;;;13.43;5.82;;;22.40;57.60;;;;;;4916311;29;20024;-79
2022/09/08 03:55:08;;;;;;;9.98;5.00;;;22.50;57.60;;;;;;4916081;29;20043;-79
2022/09/08 03:57:34;;;;;;;12.77;5.55;;;22.50;57.60;;;;;;4916007;29;20128;-79
2022/09/08 04:00:01;;;;;;;9.88;4.95;;;22.50;57.50;;;;;;4915567;29;20040;-78
2022/09/08 04:02:29;;;;;;;10.30;5.40;;;22.50;57.50;;;;;;4915706;29;20043;-78
2022/09/08 04:04:56;;;;;;;11.45;5.13;;;22.50;57.60;;;;;;4915966;29;20067;-78
2022/09/08 04:07:27;;;;;;;9.75;5.15;;;22.40;57.40;;;;;;4914568;29;20036;-77
2022/09/08 04:09:56;;;;;;;9.32;4.88;;;22.50;57.50;;;;;;4915623;29;20032;-79
2022/09/08 04:12:25;;;;;;;9.00;5.63;;;22.40;57.50;;;;;;4915898;29;20396;-80
2022/09/08 04:14:58;;;;;;;10.38;4.90;;;22.50;57.60;;;;;;4914822;29;20043;-81
2022/09/08 04:17:26;;;;;;;8.98;4.97;;;22.40;57.40;;;;;;4898874;29;20040;-79
2022/09/08 04:19:52;;;;;;;9.48;5.15;;;22.40;57.50;;;;;;4897708;29;20043;-79
2022/09/08 04:22:20;;;;;;;8.95;4.50;;;22.40;57.40;;;;;;4914469;29;20036;-80
2022/09/08 04:24:46;;;;;;;10.25;5.10;;;22.50;57.40;;;;;;4914401;29;20047;-80
2022/09/08 04:27:13;;;;;;;9.55;5.18;;;22.40;57.40;;;;;;4914744;29;20036;-80
2022/09/08 04:29:39;;;;;;;9.82;5.22;;;22.50;57.30;;;;;;4898413;29;20397;-79
2022/09/08 04:32:07;;;;;;;10.20;5.10;;;22.50;57.50;;;;;;4914404;29;20035;-77
2022/09/08 04:34:33;;;;;;;9.32;4.72;;;22.50;57.50;;;;;;4915517;29;20060;-78
2022/09/08 04:36:59;;;;;;;9.07;4.88;;;22.50;57.10;;;;;;4914464;29;20040;-79
2022/09/08 04:39:25;;;;;;;10.52;4.38;;;22.50;57.30;;;;;;4913748;29;20378;-77
2022/09/08 04:41:51;;;;;;;10.95;5.05;;;22.40;57.20;;;;;;4915581;29;20039;-77
2022/09/08 04:44:16;;;;;;;8.25;4.50;;;22.50;57.20;;;;;;4914064;29;20075;-78
2022/09/08 04:46:42;;;;;;;12.70;4.50;;;22.50;57.30;;;;;;4914064;29;20047;-79
2022/09/08 04:49:08;;;;;;;7.55;4.28;;;22.40;57.30;;;;;;4913965;29;20024;-78
2022/09/08 04:51:34;;;;;;;8.48;4.32;;;22.50;57.40;;;;;;4914931;29;20080;-78
2022/09/08 04:54:01;;;;;;;10.43;4.95;;;22.50;57.30;;;;;;4914119;29;20510;-77
2022/09/08 04:56:28;;;;;;;8.70;4.80;;;22.50;57.40;;;;;;4914248;29;20074;-77
2022/09/08 04:58:54;;;;;;;9.50;4.95;;;22.50;57.40;;;;;;4914943;29;20036;-77
2022/09/08 05:01:27;;;;;;;11.25;5.05;;;22.50;57.10;;;;;;4914272;29;20079;-78
2022/09/08 05:03:56;;;;;;;8.48;4.80;;;22.50;57.30;;;;;;4897122;29;20526;-78
2022/09/08 05:06:22;;;;;;;8.38;4.47;;;22.50;57.20;;;;;;4894933;29;20464;-78
2022/09/08 05:08:51;;;;;;;14.02;4.88;;;22.40;57.30;;;;;;4895334;29;20112;-78
2022/09/08 05:11:19;;;;;;;9.38;4.15;;;22.40;57.20;;;;;;4896022;29;20029;-78
2022/09/08 05:13:45;;;;;;;8.90;4.68;;;22.50;57.20;;;;;;4896208;29;20029;-78
2022/09/08 05:16:18;;;;;;;16.90;4.60;;;22.40;57.10;;;;;;4895995;29;20043;-79
2022/09/08 05:18:47;;;;;;;7.45;4.15;;;22.40;57.20;;;;;;4894836;29;20508;-78
2022/09/08 05:21:13;;;;;;;9.38;4.55;;;22.50;57.00;;;;;;4896343;29;20035;-79
2022/09/08 05:23:40;;;;;;;9.60;4.93;;;22.50;57.10;;;;;;4896158;29;20092;-78
2022/09/08 05:26:07;;;;;;;8.85;4.20;;;22.50;57.00;;;;;;4896241;29;20032;-78
2022/09/08 05:28:36;;;;;;;8.10;4.60;;;22.40;57.00;;;;;;4895633;29;20039;-78
2022/09/08 05:31:05;;;;;;;8.38;4.75;;;22.50;57.00;;;;;;4896747;29;20501;-78
2022/09/08 05:33:31;;;;;;;9.77;5.03;;;22.50;56.90;;;;;;4882679;29;20044;-78
2022/09/08 05:35:58;;;;;;;9.95;4.82;;;22.40;56.90;;;;;;4899695;29;20048;-78
2022/09/08 05:38:24;;;;;;;9.25;4.60;;;22.40;56.90;;;;;;4899376;29;20060;-78
2022/09/08 05:40:49;;;;;;;9.25;4.47;;;22.40;57.20;;;;;;4899463;29;20132;-78
2022/09/08 05:43:16;;;;;;;12.07;4.70;;;22.40;57.00;;;;;;4899407;29;20035;-77
2022/09/08 05:45:49;;;;;;;10.00;4.57;;;22.50;57.00;;;;;;4899544;29;20036;-78
2022/09/08 05:48:15;;;;;;;8.73;4.43;;;22.50;57.00;;;;;;4882722;29;20503;-79
2022/09/08 05:50:45;;;;;;;10.32;4.18;;;22.50;57.00;;;;;;4898993;29;20107;-77
2022/09/08 05:53:12;;;;;;;9.90;3.97;;;22.40;56.70;;;;;;4899077;29;20031;-79
2022/09/08 05:55:39;;;;;;;7.63;4.20;;;22.40;57.10;;;;;;4899173;29;20490;-78
2022/09/08 05:58:05;;;;;;;8.60;4.43;;;22.40;56.90;;;;;;4898952;29;20450;-78
2022/09/08 06:00:31;;;;;;;8.05;4.07;;;22.40;56.90;;;;;;4897815;29;20051;-79
2022/09/08 06:02:56;;;;;;;8.50;4.15;;;22.40;56.80;;;;;;4899305;29;20029;-79
2022/09/08 06:05:23;;;;;;;8.23;4.55;;;22.40;57.10;;;;;;4899036;29;20043;-78
2022/09/08 06:07:49;;;;;;;9.20;4.40;;;22.40;57.00;;;;;;4898933;29;20135;-79
2022/09/08 06:10:16;;;;;;;8.52;4.60;;;22.40;56.90;;;;;;4897591;29;20032;-79
2022/09/08 06:12:43;;;;;;;11.18;4.78;;;22.50;57.00;;;;;;4899306;29;20043;-78
2022/09/08 06:15:10;;;;;;;8.73;4.20;;;22.40;56.70;;;;;;4897940;29;20129;-79
2022/09/08 06:17:36;;;;;;;8.23;4.47;;;22.40;56.80;;;;;;4899103;29;20063;-79
2022/09/08 06:20:03;;;;;;;8.02;4.45;;;22.40;56.60;;;;;;4897163;29;20032;-79
2022/09/08 06:22:32;;;;;;;9.48;4.68;;;22.40;56.90;;;;;;4898940;29;20398;-78
2022/09/08 06:24:58;;;;;;;7.88;4.10;;;22.40;56.80;;;;;;4908725;29;20561;-78
2022/09/08 06:27:42;;;;;;;9.70;4.80;;;22.40;56.70;;;;;;4898862;29;20115;-78
2022/09/08 06:30:11;;;;;;;9.32;4.00;;;22.40;56.70;;;;;;4898373;29;20451;-79
2022/09/08 06:32:52;;;;;;;9.25;4.10;;;22.40;56.90;;;;;;4898812;29;20032;-79
2022/09/08 06:35:23;;;;;;;11.73;4.88;;;22.40;56.60;;;;;;4898616;29;20028;-79
2022/09/08 06:37:56;;;;;;;7.85;4.07;;;22.40;56.60;;;;;;4898692;29;20511;-79
2022/09/08 06:40:45;;;;;;;7.03;4.45;;;22.40;56.80;;;;;;4898201;29;20063;-79
2022/09/08 06:43:32;;;;;;;8.02;4.15;;;22.40;56.60;;;;;;4897751;29;20032;-79
2022/09/08 06:46:04;;;;;;;8.68;4.45;;;22.40;56.70;;;;;;4898414;29;20033;-79
2022/09/08 06:48:32;;;;;;;9.15;4.85;;;22.40;56.60;;;;;;4898253;29;20080;-79
2022/09/08 06:51:15;;;;;;;7.90;4.32;;;22.40;56.60;;;;;;4897037;29;20037;-79
2022/09/08 06:53:50;;;;;;;11.00;4.57;;;22.40;57.20;;;;;;4897882;29;20446;-78
2022/09/08 06:56:51;;;;;;;7.63;4.43;;;22.40;56.60;;;;;;4898257;29;20104;-78
2022/09/08 06:59:42;;;;;;;9.13;4.80;;;22.40;56.40;;;;;;4897857;29;20041;-79
2022/09/08 07:02:15;;;;;;;7.97;4.18;;;22.40;56.60;;;;;;4898050;29;20107;-79
2022/09/08 07:05:28;;;;;;;7.70;4.55;;;22.50;56.60;;;;;;4898197;29;20044;-78
2022/09/08 07:08:19;;;;;;;11.40;4.93;;;22.40;56.50;;;;;;4893473;29;20040;-78
2022/09/08 07:10:53;;;;;;;8.35;4.40;;;22.50;56.50;;;;;;4898060;29;20160;-77
2022/09/08 07:13:23;;;;;;;8.30;4.45;;;22.50;57.20;;;;;;4896966;29;20120;-78
2022/09/08 07:16:18;;;;;;;8.07;4.32;;;22.50;56.50;;;;;;4912634;29;20040;-79
2022/09/08 07:18:49;;;;;;;9.35;4.68;;;22.50;56.50;;;;;;4897404;29;20035;-78
2022/09/08 07:21:39;;;;;;;9.65;4.30;;;22.40;56.20;;;;;;4897874;29;20424;-78
2022/09/08 07:24:10;;;;;;;6.80;4.10;;;22.40;56.40;;;;;;4912237;29;20070;-78
2022/09/08 07:26:45;;;;;;;7.40;4.07;;;22.40;56.60;;;;;;4898121;29;20040;-78
2022/09/08 07:29:33;;;;;;;10.57;4.53;;;22.50;56.70;;;;;;4880359;29;20281;-78
2022/09/08 07:32:00;;;;;;;12.90;4.97;;;22.40;56.40;;;;;;4912324;29;20064;-78
2022/09/08 07:34:30;;;;;;;10.23;4.20;;;22.50;56.50;;;;;;4896299;29;20529;-78
2022/09/08 07:37:03;;;;;;;9.60;4.20;;;22.40;56.50;;;;;;4897734;29;20033;-79
2022/09/08 07:39:40;;;;;;;10.40;4.43;;;22.40;56.30;;;;;;4897026;29;20047;-78
2022/09/08 07:42:12;;;;;;;8.70;4.43;;;22.40;56.20;;;;;;4896590;29;20048;-78
2022/09/08 07:44:39;;;;;;;10.32;4.20;;;22.40;56.40;;;;;;4880569;29;20036;-78
2022/09/08 07:47:44;;;;;;;7.75;4.85;;;22.40;56.40;;;;;;4911976;29;20029;-78
2022/09/08 07:50:55;;;;;;;9.93;4.80;;;22.40;56.50;;;;;;4906370;29;20036;-77
2022/09/08 07:53:46;;;;;;;9.20;4.45;;;22.40;56.60;;;;;;4909826;29;20111;-77
2022/09/08 07:56:14;;;;;;;10.07;3.90;;;22.40;57.00;;;;;;4913609;29;20068;-79
2022/09/08 07:59:08;;;;;;;12.25;4.90;;;22.40;56.70;;;;;;4909381;29;20032;-77
2022/09/08 08:02:01;;;;;;;13.20;4.78;;;22.50;57.10;;;;;;4914862;29;20401;-74
2022/09/08 08:04:50;;;;;;;10.40;4.13;;;22.50;57.10;;;;;;4906634;29;20405;-76
2022/09/08 08:07:25;;;;;;;10.45;3.97;;;22.50;56.90;;;;;;4899794;29;20047;-76
2022/09/08 08:10:16;;;;;;;12.98;5.32;;;22.40;56.30;;;;;;4895268;29;20032;-76
2022/09/08 08:12:59;;;;;;;9.85;4.80;;;22.50;56.20;;;;;;4895901;29;20025;-75
2022/09/08 08:16:04;;;;;;;10.38;5.07;;;22.40;55.40;;;;;;4895250;29;20036;-76
2022/09/08 08:18:57;;;;;;;16.02;5.20;;;22.40;55.90;;;;;;4892334;29;20035;-75
2022/09/08 08:21:37;;;;;;;10.75;5.05;;;22.40;55.10;;;;;;4896533;29;20393;-76
2022/09/08 08:24:32;;;;;;;12.43;5.32;;;22.40;55.30;;;;;;4895226;29;20128;-75
2022/09/08 08:26:57;;;;;;;14.05;5.82;;;22.40;55.00;;;;;;4894705;29;20039;-75
2022/09/08 08:29:52;;;;;;;17.20;5.68;;;22.30;55.70;;;;;;4895779;29;20025;-76
2022/09/08 08:32:27;;;;;;;14.20;5.53;;;22.30;54.80;;;;;;4895626;29;20029;-76
2022/09/08 08:35:01;;;;;;;16.85;6.32;;;22.20;54.00;;;;;;4895411;29;20107;-75
2022/09/08 08:37:33;;;;;;;15.63;6.45;;;22.20;53.80;;;;;;4896373;29;20025;-75
2022/09/08 08:40:00;;;;;;;13.00;6.15;;;22.20;53.20;;;;;;4910870;29;20032;-74
2022/09/08 08:43:06;;;;;;;13.00;5.43;;;22.20;53.40;;;;;;4896702;29;20040;-75
2022/09/08 08:46:07;;;;;;;11.65;5.45;;;22.10;53.60;;;;;;4894068;29;20076;-75
2022/09/08 08:49:12;;;;;;;13.93;5.40;;;22.10;53.50;;;;;;4896356;29;20116;-75
2022/09/08 08:51:57;;;;;;;14.73;4.80;;;22.10;52.70;;;;;;4896483;29;20545;-75
2022/09/08 08:55:09;;;;;;;13.10;4.88;;;22.10;52.80;;;;;;4896654;29;20033;-76
2022/09/08 08:58:07;;;;;;;21.42;4.88;;;22.10;52.90;;;;;;4908275;29;20172;-76
2022/09/08 09:01:07;;;;;;;15.50;4.95;;;22.00;53.00;;;;;;4901340;29;20115;-75
2022/09/08 09:04:02;;;;;;;15.80;5.20;;;22.00;53.30;;;;;;4903701;29;20131;-76
2022/09/08 09:07:02;;;;;;;16.65;4.95;;;22.00;53.30;;;;;;4887616;29;20455;-76
2022/09/08 09:09:54;;;;;;;15.07;4.82;;;22.00;53.70;;;;;;4898082;29;20033;-76
2022/09/08 09:13:03;;;;;;;13.07;4.95;;;22.10;54.00;;;;;;4905169;29;20072;-75
2022/09/08 09:16:04;;;;;;;14.95;4.95;;;22.10;54.30;;;;;;4898486;29;20040;-77
2022/09/08 09:18:50;;;;;;;43.38;23.10;;;22.10;54.50;;;;;;4865170;29;20040;-75
2022/09/08 09:21:49;;;;;;;37.55;23.63;;;22.10;54.60;;;;;;4900469;29;20028;-75
2022/09/08 09:24:41;;;;;;;38.72;25.77;;;22.10;54.80;;;;;;4911515;29;20024;-75
2022/09/08 09:27:52;;;;;;;33.45;19.10;;;22.10;54.70;;;;;;4914100;29;20040;-76
2022/09/08 09:30:21;;;;;;;44.38;24.08;;;22.20;55.00;;;;;;4915609;29;20043;-76
2022/09/08 09:33:14;;;;;;;37.25;22.45;;;22.20;54.60;;;;;;4915976;29;20024;-74
2022/09/08 09:35:45;;;;;;;42.15;23.13;;;22.20;54.50;;;;;;4915739;29;20096;-74
2022/09/08 09:38:23;;;;;;;32.45;19.25;;;22.20;54.60;;;;;;4915297;29;20020;-75
2022/09/08 09:40:58;;;;;;;35.72;22.17;;;22.30;54.80;;;;;;4906581;29;20064;-75
2022/09/08 09:43:33;;;;;;;30.92;20.02;;;22.30;54.80;;;;;;4904821;29;20024;-75
2022/09/08 09:46:06;;;;;;;31.02;19.38;;;22.30;54.80;;;;;;4906513;29;20096;-74
2022/09/08 09:48:44;;;;;;;36.80;21.13;;;22.30;55.00;;;;;;4914159;29;20040;-75
2022/09/08 09:51:36;;;;;;;32.65;20.95;;;22.40;55.60;;;;;;4907472;29;20068;-75
2022/09/08 09:54:20;;;;;;;29.63;19.50;;;22.40;55.10;;;;;;4922909;29;20079;-75
2022/09/08 09:56:55;;;;;;;31.92;20.20;;;22.30;55.10;;;;;;4922488;29;20050;-75
2022/09/08 09:59:39;;;;;;;33.40;19.23;;;22.30;55.30;;;;;;4901302;29;20434;-75
2022/09/08 10:02:39;;;;;;;33.38;18.80;;;22.40;55.40;;;;;;4921005;29;20059;-75
2022/09/08 10:05:42;;;;;;;33.50;19.95;;;22.40;55.40;;;;;;4903879;29;20430;-74
2022/09/08 10:08:40;;;;;;;33.75;19.33;;;22.40;55.50;;;;;;4898811;29;20101;-75
2022/09/08 10:11:24;;;;;;;33.88;18.88;;;22.40;55.60;;;;;;4904780;29;20516;-75
2022/09/08 10:13:59;;;;;;;35.60;19.88;;;22.40;55.70;;;;;;4917766;29;20032;-77
2022/09/08 10:16:40;;;;;;;38.75;18.48;;;22.30;55.90;;;;;;4916090;29;20039;-76
2022/09/08 10:19:14;;;;;;;31.17;19.33;;;22.30;55.90;;;;;;4899428;29;20036;-73
2022/09/08 10:22:04;;;;;;;28.75;19.13;;;22.40;56.10;;;;;;4901023;29;20039;-75
2022/09/08 10:24:54;;;;;;;33.78;18.67;;;22.40;56.10;;;;;;4916502;29;20485;-76
2022/09/08 10:27:45;;;;;;;31.33;17.85;;;22.40;56.30;;;;;;4900834;29;20039;-76
2022/09/08 10:30:27;;;;;;;39.15;18.75;;;22.40;56.00;;;;;;4916216;29;20060;-75
2022/09/08 10:33:21;;;;;;;32.85;17.42;;;22.40;56.00;;;;;;4917619;29;20111;-76
2022/09/08 10:36:06;;;;;;;43.28;17.90;;;22.40;56.10;;;;;;4916467;29;20028;-76
2022/09/08 10:39:06;;;;;;;31.42;17.63;;;22.40;56.40;;;;;;4908795;29;20052;-75
2022/09/08 10:42:07;;;;;;;36.97;17.52;;;22.40;56.50;;;;;;4925774;29;20473;-75
2022/09/08 10:44:49;;;;;;;33.47;18.15;;;22.40;56.50;;;;;;4907678;29;20107;-75
2022/09/08 10:47:36;;;;;;;43.47;16.75;;;22.40;57.30;;;;;;4898331;29;20033;-75
2022/09/08 10:50:24;;;;;;;31.70;17.00;;;22.40;56.70;;;;;;4881087;29;20032;-75
2022/09/08 10:53:15;;;;;;;31.08;16.40;;;22.40;56.90;;;;;;4897553;29;20036;-75
2022/09/08 10:55:53;;;;;;;32.83;17.33;;;22.40;56.90;;;;;;4895414;29;20039;-75
2022/09/08 10:58:47;;;;;;;31.70;16.50;;;22.40;56.80;;;;;;4897328;29;20036;-75
2022/09/08 11:01:33;;;;;;;27.13;17.13;;;22.40;57.00;;;;;;4891146;29;20044;-75
2022/09/08 11:04:37;;;;;;;33.08;16.95;;;22.40;57.00;;;;;;4896231;29;20064;-75
2022/09/08 11:07:42;;;;;;;26.98;17.52;;;22.40;56.90;;;;;;4897747;29;20072;-75
2022/09/08 11:10:38;;;;;;;30.02;17.20;;;22.40;57.00;;;;;;4897568;29;20135;-75
2022/09/08 11:13:25;;;;;;;30.00;16.90;;;22.40;57.00;;;;;;4896897;29;20021;-75
2022/09/08 11:16:03;;;;;;;25.58;15.85;;;22.40;57.00;;;;;;4897806;29;20037;-76
2022/09/08 11:18:36;;;;;;;24.73;15.02;;;22.30;57.10;;;;;;4897353;29;20097;-75
2022/09/08 11:21:22;;;;;;;24.73;15.93;;;22.40;57.20;;;;;;4897832;29;20033;-76
2022/09/08 11:24:24;;;;;;;30.88;16.15;;;22.30;57.10;;;;;;4913081;29;20032;-75
2022/09/08 11:27:12;;;;;;;25.30;16.20;;;22.30;57.10;;;;;;4881016;29;20191;-75
2022/09/08 11:29:39;;;;;;;23.70;15.27;;;22.30;57.10;;;;;;4912826;29;20020;-75
2022/09/08 11:32:22;;;;;;;32.65;16.60;;;22.30;57.00;;;;;;4908477;29;20024;-75
2022/09/08 11:35:12;;;;;;;29.17;15.73;;;22.30;57.60;;;;;;4915323;29;20032;-75
2022/09/08 11:37:41;;;;;;;;;;;22.30;58.40;;;;;;4915552;29;20493;-75
2022/09/08 11:40:35;;;;;;;26.90;14.98;;;22.40;58.20;;;;;;4916334;29;19911;-75
2022/09/08 11:43:19;;;;;;;27.13;16.10;;;22.40;58.30;;;;;;4916134;29;20060;-75
2022/09/08 11:46:20;;;;;;;28.70;16.65;;;22.30;58.30;;;;;;4916201;29;20043;-74
2022/09/08 11:48:51;;;;;;;40.55;17.42;;;22.40;59.70;;;;;;4915759;29;20087;-77
2022/09/08 11:51:35;;;;;;;43.60;16.88;;;22.40;61.30;;;;;;4916281;29;20079;-84
2022/09/08 11:54:01;;;;;;;26.75;14.50;;;22.40;62.40;;;;;;4915042;29;20040;-83
2022/09/08 11:56:51;;;;;;;29.77;13.30;;;22.40;58.20;;;;;;4916045;29;20040;-83
2022/09/08 11:59:28;;;;;;;26.15;10.85;;;22.40;61.60;;;;;;4914278;29;20063;-74
2022/09/08 12:02:03;;;;;;;20.98;9.73;;;22.30;65.50;;;;;;4916368;29;20040;-73
2022/09/08 12:04:47;;;;;;;19.42;9.57;;;22.20;67.10;;;;;;4915941;29;20032;-72
2022/09/08 12:07:16;;;;;;;22.77;9.70;;;22.20;67.30;;;;;;4908827;29;20126;-72
2022/09/08 12:09:48;;;;;;;25.27;8.55;;;22.20;67.30;;;;;;4907742;29;20397;-72
2022/09/08 12:12:30;;;;;;;19.83;8.43;;;22.20;69.80;;;;;;4910038;29;20130;-71
2022/09/08 12:15:16;;;;;;;17.92;9.45;;;22.30;68.70;;;;;;4911437;29;20036;-72
2022/09/08 12:17:59;;;;;;;16.55;8.07;;;22.30;68.20;;;;;;4906116;29;20024;-72
2022/09/08 12:20:52;;;;;;;19.17;8.82;;;22.30;66.60;;;;;;4905965;29;20397;-72
2022/09/08 12:23:38;;;;;;;19.48;8.73;;;22.40;66.30;;;;;;4915843;29;20048;-72
2022/09/08 12:26:19;;;;;;;17.88;8.18;;;22.40;66.70;;;;;;4908804;29;20033;-72
2022/09/08 12:28:45;;;;;;;18.42;9.20;;;22.40;65.80;;;;;;4900169;29;20055;-70
2022/09/08 12:31:23;;;;;;;24.40;9.48;;;22.40;66.30;;;;;;4912920;23;20580;-73
2022/09/08 12:33:55;;;;;;;15.57;8.30;;;22.40;68.00;;;;;;4886370;29;20104;-72
2022/09/08 12:36:35;;;;;;;18.77;8.57;;;22.30;66.60;;;;;;4877152;29;20303;-72
2022/09/08 12:39:29;;;;;;;19.48;8.07;;;22.40;69.10;;;;;;4887964;29;20052;-76
2022/09/08 12:42:01;;;;;;;14.65;7.95;;;22.30;68.40;;;;;;4880790;29;20374;-75
2022/09/08 12:44:42;;;;;;;17.73;8.00;;;22.40;67.30;;;;;;4881461;29;20043;-76
2022/09/08 12:47:38;;;;;;;18.10;8.63;;;22.40;67.20;;;;;;4871616;29;20041;-76
2022/09/08 12:50:20;;;;;;;19.50;8.30;;;22.40;67.10;;;;;;4863742;29;20032;-76
2022/09/08 12:53:12;;;;;;;19.02;8.15;;;22.40;68.20;;;;;;4875487;29;20073;-76
2022/09/08 12:55:44;;;;;;;16.25;7.88;;;22.40;66.90;;;;;;4884993;29;20044;-76
2022/09/08 12:58:32;;;;;;;15.48;8.55;;;22.40;66.70;;;;;;4855822;29;20135;-76
2022/09/08 13:01:14;;;;;;;18.52;11.90;;;22.50;67.10;;;;;;4862528;29;20044;-76
2022/09/08 13:03:42;;;;;;;25.88;12.75;;;22.40;67.20;;;;;;4876759;29;20040;-76
2022/09/08 13:06:42;;;;;;;21.70;12.40;;;22.40;68.10;;;;;;4872898;29;20029;-77
2022/09/08 13:09:23;;;;;;;20.80;11.75;;;22.40;68.00;;;;;;4873687;29;20362;-76
2022/09/08 13:12:11;;;;;;;21.52;11.73;;;22.50;67.40;;;;;;4854154;29;20105;-77
2022/09/08 13:14:56;;;;;;;25.23;13.45;;;22.50;67.00;;;;;;4857191;29;20041;-77
2022/09/08 13:17:46;;;;;;;23.23;11.57;;;22.50;67.50;;;;;;4858245;29;20298;-76
2022/09/08 13:20:12;;;;;;;;;;;22.60;67.60;;;;;;4860294;29;20037;-78
2022/09/08 13:22:47;;;;;;;21.20;12.27;;;22.60;67.40;;;;;;4856472;29;19919;-76
2022/09/08 13:25:38;;;;;;;21.40;12.32;;;22.60;67.30;;;;;;4876950;29;20079;-78
2022/09/08 13:28:44;;;;;;;23.20;11.85;;;22.60;67.50;;;;;;4865860;29;20510;-77
2022/09/08 13:31:44;;;;;;;23.80;11.43;;;22.70;67.70;;;;;;4842376;29;20083;-77
2022/09/08 13:34:45;;;;;;;20.40;11.35;;;22.70;67.60;;;;;;4843305;29;20253;-78